Time;durP1;ratioP1;P1;durP2;ratioP2;P2;SDS_P1;SDS_P2;PMS_P1;PMS_P2;Temp;Humidity;BMP_temperature;BMP_pressure;BME280_temperature;BME280_humidity;BME280_pressure;Samples;Min_cycle;Max_cycle;Signal;HPM_P1;HPM_P2
2022/09/10 00:00:38;;;;;;;14.70;10.57;;;15.50;99.90;;;;;;4404479;28;660108;-68
2022/09/10 00:03:25;;;;;;;30.53;10.97;;;15.50;99.90;;;;;;4362147;28;660482;-67
2022/09/10 00:06:12;;;;;;;17.83;11.63;;;15.30;99.90;;;;;;4411371;28;660373;-68
2022/09/10 00:09:00;;;;;;;19.27;12.10;;;15.30;99.90;;;;;;4404804;28;660157;-68
2022/09/10 00:11:47;;;;;;;18.90;11.80;;;15.40;99.90;;;;;;4381804;28;660954;-67
2022/09/10 00:14:35;;;;;;;20.70;11.00;;;15.50;99.90;;;;;;4400119;28;659811;-66
2022/09/10 00:17:24;;;;;;;21.37;12.57;;;15.30;99.90;;;;;;4407332;28;659728;-67
2022/09/10 00:20:11;;;;;;;21.17;14.47;;;15.30;99.90;;;;;;4386254;28;659839;-68
2022/09/10 00:22:58;;;;;;;24.17;14.13;;;15.40;99.90;;;;;;4403706;28;660697;-69
2022/09/10 00:25:45;;;;;;;20.40;13.50;;;15.40;99.90;;;;;;4385266;28;660167;-66
2022/09/10 00:28:32;;;;;;;20.52;13.48;;;15.40;99.90;;;;;;4408111;28;661058;-68
2022/09/10 00:31:20;;;;;;;25.57;12.80;;;15.50;99.90;;;;;;4405813;28;659450;-69
2022/09/10 00:34:10;;;;;;;24.47;13.53;;;15.40;99.90;;;;;;4387220;28;660530;-69
2022/09/10 00:36:58;;;;;;;20.97;13.30;;;15.50;99.90;;;;;;4379867;28;660594;-69
2022/09/10 00:39:46;;;;;;;19.63;13.57;;;15.30;99.90;;;;;;4390248;28;661067;-66
2022/09/10 00:42:33;;;;;;;22.23;12.93;;;15.40;99.90;;;;;;4403729;28;660668;-68
2022/09/10 00:45:21;;;;;;;24.90;13.17;;;15.30;99.90;;;;;;4391036;28;659316;-66
2022/09/10 00:48:12;;;;;;;20.93;13.00;;;15.30;99.90;;;;;;4406912;28;660107;-68
2022/09/10 00:51:01;;;;;;;24.30;14.93;;;15.30;99.90;;;;;;4379445;28;659835;-68
2022/09/10 00:53:49;;;;;;;22.10;14.23;;;15.30;99.90;;;;;;4379959;28;659925;-68
2022/09/10 00:56:36;;;;;;;25.90;16.67;;;15.30;99.90;;;;;;4381167;28;659867;-68
2022/09/10 00:59:25;;;;;;;23.13;15.83;;;15.40;99.90;;;;;;4399204;28;660114;-68
2022/09/10 01:02:13;;;;;;;22.90;14.83;;;15.40;99.90;;;;;;4385951;28;659792;-68
2022/09/10 01:05:00;;;;;;;26.27;15.37;;;15.40;99.90;;;;;;4397795;28;659835;-67
2022/09/10 01:07:49;;;;;;;23.27;15.85;;;15.30;99.90;;;;;;4403423;28;659766;-68
2022/09/10 01:10:39;;;;;;;23.77;15.43;;;15.20;99.90;;;;;;4379589;28;659450;-68
2022/09/10 01:13:33;;;;;;;25.80;14.33;;;15.30;99.90;;;;;;4379216;28;659997;-66
2022/09/10 01:16:23;;;;;;;26.30;16.30;;;15.30;99.90;;;;;;4358602;28;660024;-67
2022/09/10 01:19:19;;;;;;;26.27;16.17;;;15.20;99.90;;;;;;4379164;28;660558;-67
2022/09/10 01:22:11;;;;;;;27.17;17.60;;;15.20;99.90;;;;;;4379192;28;659722;-68
2022/09/10 01:25:02;;;;;;;29.23;18.80;;;15.10;99.90;;;;;;4374930;28;660526;-68
2022/09/10 01:27:52;;;;;;;28.97;19.17;;;15.00;99.90;;;;;;4373901;28;660352;-67
2022/09/10 01:30:41;;;;;;;36.13;20.23;;;14.90;99.90;;;;;;4397494;28;659430;-69
2022/09/10 01:33:32;;;;;;;33.07;21.57;;;15.00;99.90;;;;;;4373238;28;660683;-69
2022/09/10 01:36:21;;;;;;;38.20;22.40;;;15.00;99.90;;;;;;4374027;28;659762;-66
2022/09/10 01:39:09;;;;;;;37.70;23.93;;;15.00;99.90;;;;;;4398901;28;659669;-68
2022/09/10 01:41:56;;;;;;;39.07;24.33;;;15.00;99.90;;;;;;4385530;28;659764;-69
2022/09/10 01:44:46;;;;;;;41.83;25.70;;;15.00;99.90;;;;;;4404536;28;660418;-68
2022/09/10 01:47:46;;;;;;;41.70;24.47;;;15.00;99.90;;;;;;4378231;28;659666;-68
2022/09/10 01:50:37;;;;;;;36.37;22.57;;;15.10;99.90;;;;;;4379647;28;660474;-69
2022/09/10 01:53:38;;;;;;;41.53;24.73;;;15.10;99.90;;;;;;4379925;28;659321;-68
2022/09/10 01:56:34;;;;;;;39.53;23.13;;;15.20;99.90;;;;;;4371136;28;660037;-68
2022/09/10 01:59:29;;;;;;;36.83;22.07;;;15.20;99.90;;;;;;4383201;28;660600;-69
2022/09/10 02:02:19;;;;;;;42.57;24.90;;;15.20;99.90;;;;;;4360000;28;660134;-69
2022/09/10 02:05:07;;;;;;;40.47;23.47;;;15.10;99.90;;;;;;4383622;28;660682;-69
2022/09/10 02:07:57;;;;;;;37.40;22.23;;;15.10;99.90;;;;;;4406976;28;659402;-69
2022/09/10 02:10:52;;;;;;;33.93;22.40;;;15.10;99.90;;;;;;4379941;28;661273;-68
2022/09/10 02:13:41;;;;;;;35.80;22.23;;;15.00;99.90;;;;;;4380504;28;659950;-69
2022/09/10 02:16:29;;;;;;;36.07;22.23;;;15.00;99.90;;;;;;4378226;28;660402;-69
2022/09/10 02:19:18;;;;;;;39.23;23.63;;;15.00;99.90;;;;;;4384679;28;660880;-69
2022/09/10 02:22:05;;;;;;;41.17;22.30;;;15.00;99.90;;;;;;4380414;28;659538;-68
2022/09/10 02:24:52;;;;;;;40.30;21.15;;;15.00;99.90;;;;;;4407485;28;660519;-69
2022/09/10 02:27:39;;;;;;;44.93;23.63;;;15.00;99.90;;;;;;4401504;28;660457;-68
2022/09/10 02:30:27;;;;;;;43.10;23.77;;;15.10;99.90;;;;;;4379871;28;660014;-68
2022/09/10 02:33:15;;;;;;;32.90;20.70;;;15.20;99.90;;;;;;4408804;28;659600;-69
2022/09/10 02:36:03;;;;;;;35.40;21.57;;;15.20;99.90;;;;;;4380020;28;661220;-69
2022/09/10 02:38:51;;;;;;;38.63;21.40;;;15.10;99.90;;;;;;4383488;28;659622;-69
2022/09/10 02:41:40;;;;;;;40.37;21.67;;;15.20;99.90;;;;;;4389797;28;660402;-69
2022/09/10 02:44:27;;;;;;;37.53;22.40;;;15.30;99.90;;;;;;4364458;28;661344;-69
2022/09/10 02:47:14;;;;;;;41.43;22.90;;;15.20;99.90;;;;;;4386884;28;659452;-67
2022/09/10 02:50:01;;;;;;;36.67;22.40;;;15.20;99.90;;;;;;4368254;28;660349;-69
2022/09/10 02:52:51;;;;;;;43.37;23.43;;;15.30;99.90;;;;;;4386610;28;659920;-69
2022/09/10 02:55:38;;;;;;;44.70;23.63;;;15.20;99.90;;;;;;4361994;28;661588;-68
2022/09/10 02:58:25;;;;;;;52.57;27.27;;;15.00;99.90;;;;;;4368948;28;659598;-67
2022/09/10 03:01:13;;;;;;;51.33;26.50;;;15.10;99.90;;;;;;4388895;28;660060;-69
2022/09/10 03:04:00;;;;;;;49.97;26.27;;;15.20;99.90;;;;;;4367626;28;659425;-68
2022/09/10 03:06:48;;;;;;;42.57;24.83;;;15.10;99.90;;;;;;4386240;28;660524;-67
2022/09/10 03:09:39;;;;;;;41.67;25.17;;;15.20;99.90;;;;;;4365750;28;659484;-66
2022/09/10 03:12:26;;;;;;;47.90;27.80;;;15.30;99.90;;;;;;4365023;28;660614;-68
2022/09/10 03:15:14;;;;;;;53.13;26.23;;;15.30;99.90;;;;;;4385921;28;659801;-69
2022/09/10 03:18:01;;;;;;;42.63;25.57;;;15.30;99.90;;;;;;4364170;28;659947;-67
2022/09/10 03:20:48;;;;;;;40.50;22.93;;;15.30;99.90;;;;;;4388438;28;661471;-68
2022/09/10 03:23:35;;;;;;;38.40;20.10;;;15.30;99.90;;;;;;4367210;28;659188;-66
2022/09/10 03:26:25;;;;;;;29.50;17.65;;;15.20;99.90;;;;;;4388402;28;661324;-67
2022/09/10 03:29:12;;;;;;;28.70;16.43;;;15.10;99.90;;;;;;4362009;28;661475;-69
2022/09/10 03:32:00;;;;;;;23.98;15.98;;;15.10;99.90;;;;;;4381005;28;660028;-68
2022/09/10 03:34:47;;;;;;;24.27;15.00;;;15.00;99.90;;;;;;4370081;28;660321;-68
2022/09/10 03:37:35;;;;;;;24.27;14.33;;;15.00;99.90;;;;;;4383439;28;659866;-67
2022/09/10 03:40:23;;;;;;;23.38;13.25;;;14.90;99.90;;;;;;4402466;28;660040;-68
2022/09/10 03:43:12;;;;;;;19.90;12.70;;;14.90;99.90;;;;;;4396191;28;659805;-67
2022/09/10 03:46:00;;;;;;;19.33;13.17;;;14.80;99.90;;;;;;4406591;28;659599;-68
2022/09/10 03:48:47;;;;;;;24.17;14.20;;;14.70;99.90;;;;;;4387775;28;660547;-68
2022/09/10 03:51:34;;;;;;;20.43;13.17;;;14.70;99.90;;;;;;4402548;28;659713;-68
2022/09/10 03:54:21;;;;;;;20.30;13.20;;;14.60;99.90;;;;;;4387910;28;660699;-68
2022/09/10 03:57:08;;;;;;;22.30;13.13;;;14.80;99.90;;;;;;4406229;28;661862;-68
2022/09/10 03:59:57;;;;;;;24.10;11.10;;;14.70;99.90;;;;;;4387814;28;659690;-67
2022/09/10 04:02:45;;;;;;;20.57;11.80;;;14.70;99.90;;;;;;4405161;28;659704;-68
2022/09/10 04:05:32;;;;;;;17.23;9.90;;;14.60;99.90;;;;;;4385335;28;660408;-69
2022/09/10 04:08:20;;;;;;;19.07;10.70;;;14.50;99.90;;;;;;4407680;28;658883;-69
2022/09/10 04:11:07;;;;;;;14.37;9.70;;;14.40;99.90;;;;;;4387114;28;660500;-69
2022/09/10 04:13:55;;;;;;;12.47;8.53;;;14.30;99.90;;;;;;4410548;28;658744;-69
2022/09/10 04:16:43;;;;;;;11.07;8.10;;;14.20;99.90;;;;;;4383993;28;659001;-68
2022/09/10 04:19:30;;;;;;;10.70;5.93;;;14.20;99.90;;;;;;4387653;28;659732;-68
2022/09/10 04:22:17;;;;;;;6.87;4.40;;;14.20;99.90;;;;;;4404427;28;660240;-69
2022/09/10 04:25:07;;;;;;;7.40;4.07;;;14.30;99.90;;;;;;4405687;28;657521;-67
2022/09/10 04:27:54;;;;;;;7.27;4.90;;;14.40;99.90;;;;;;4414021;28;657486;-69
2022/09/10 04:30:41;;;;;;;10.23;5.70;;;14.30;99.90;;;;;;4388572;28;658073;-68
2022/09/10 04:33:32;;;;;;;9.37;6.17;;;14.30;99.90;;;;;;4404780;28;659268;-69
2022/09/10 04:36:19;;;;;;;8.20;5.73;;;14.20;99.90;;;;;;4385806;28;657659;-69
2022/09/10 04:39:06;;;;;;;6.87;5.13;;;14.20;99.90;;;;;;4389378;28;657672;-69
2022/09/10 04:41:53;;;;;;;5.17;4.27;;;14.10;99.90;;;;;;4407271;28;658307;-68
2022/09/10 04:44:40;;;;;;;7.70;3.70;;;14.10;99.90;;;;;;4385359;28;657422;-69
2022/09/10 04:47:28;;;;;;;7.40;4.90;;;14.20;99.90;;;;;;4404847;28;657863;-68
2022/09/10 04:50:17;;;;;;;11.83;6.60;;;14.20;99.90;;;;;;4393064;28;657521;-67
2022/09/10 04:53:04;;;;;;;10.27;6.70;;;14.10;99.90;;;;;;4409899;28;659414;-68
2022/09/10 04:55:51;;;;;;;10.17;5.50;;;14.10;99.90;;;;;;4384156;28;659241;-67
2022/09/10 04:58:38;;;;;;;7.43;5.03;;;14.00;99.90;;;;;;4411220;28;659416;-69
2022/09/10 05:01:27;;;;;;;10.93;7.50;;;14.10;99.90;;;;;;4386740;28;657976;-68
2022/09/10 05:04:14;;;;;;;12.33;7.30;;;14.00;99.90;;;;;;4403544;28;658448;-69
2022/09/10 05:07:03;;;;;;;10.43;6.03;;;14.00;99.90;;;;;;4384580;28;659620;-68
2022/09/10 05:09:50;;;;;;;10.90;5.57;;;14.00;99.90;;;;;;4385829;28;659129;-66
2022/09/10 05:12:38;;;;;;;8.10;4.60;;;14.10;99.90;;;;;;4408535;28;659173;-69
2022/09/10 05:15:25;;;;;;;4.43;3.50;;;14.00;99.90;;;;;;4386911;28;657467;-66
2022/09/10 05:18:12;;;;;;;4.43;3.13;;;14.00;99.90;;;;;;4408208;28;659495;-69
2022/09/10 05:20:59;;;;;;;5.40;3.00;;;14.00;99.90;;;;;;4406374;28;658272;-68
2022/09/10 05:23:48;;;;;;;3.83;2.30;;;14.00;99.90;;;;;;4386747;28;658504;-69
2022/09/10 05:26:35;;;;;;;4.43;2.40;;;14.00;99.90;;;;;;4393028;28;657704;-67
2022/09/10 05:29:22;;;;;;;3.17;2.10;;;14.00;99.90;;;;;;4410778;28;657990;-69
2022/09/10 05:32:09;;;;;;;3.47;2.67;;;14.00;99.90;;;;;;4405141;28;658093;-69
2022/09/10 05:34:56;;;;;;;4.03;2.73;;;14.00;99.90;;;;;;4387490;28;657504;-69
2022/09/10 05:37:44;;;;;;;3.43;2.27;;;14.00;99.90;;;;;;4406308;28;657361;-69
2022/09/10 05:40:32;;;;;;;3.17;2.30;;;14.00;99.90;;;;;;4384386;28;658160;-69
2022/09/10 05:43:20;;;;;;;3.73;2.10;;;14.00;99.90;;;;;;4403128;28;657395;-67
2022/09/10 05:46:08;;;;;;;7.20;2.37;;;14.00;99.90;;;;;;4408939;28;658512;-69
2022/09/10 05:48:55;;;;;;;3.73;2.10;;;14.00;99.90;;;;;;4398783;28;657582;-67
2022/09/10 05:51:42;;;;;;;2.93;1.90;;;14.10;99.90;;;;;;4408211;28;658115;-69
2022/09/10 05:54:29;;;;;;;3.20;2.10;;;14.00;99.90;;;;;;4402412;28;657611;-69
2022/09/10 05:57:18;;;;;;;3.10;2.10;;;14.10;99.90;;;;;;4387019;28;658087;-70
2022/09/10 06:00:07;;;;;;;5.70;2.20;;;14.00;99.90;;;;;;4391200;28;657780;-68
2022/09/10 06:02:55;;;;;;;4.97;2.87;;;14.00;99.90;;;;;;4408737;28;657646;-70
2022/09/10 06:05:49;;;;;;;3.40;2.23;;;14.00;99.90;;;;;;4380359;28;658097;-69
2022/09/10 06:08:36;;;;;;;7.10;2.47;;;14.10;99.90;;;;;;4386190;28;657235;-68
2022/09/10 06:11:23;;;;;;;3.57;2.70;;;14.10;99.90;;;;;;4408180;28;658463;-69
2022/09/10 06:14:13;;;;;;;4.17;2.87;;;14.10;99.90;;;;;;4389450;28;657336;-68
2022/09/10 06:17:00;;;;;;;5.53;3.17;;;14.20;99.90;;;;;;4388084;28;657685;-69
2022/09/10 06:19:47;;;;;;;4.33;2.90;;;14.20;99.90;;;;;;4406158;28;659324;-69
2022/09/10 06:22:35;;;;;;;4.70;2.87;;;14.20;99.90;;;;;;4404263;28;658021;-67
2022/09/10 06:25:23;;;;;;;7.97;3.30;;;14.20;99.90;;;;;;4410592;28;658186;-69
2022/09/10 06:28:11;;;;;;;5.90;3.70;;;14.20;99.90;;;;;;4390188;28;657443;-67
2022/09/10 06:30:59;;;;;;;5.23;3.53;;;14.30;99.90;;;;;;4411458;28;657732;-70
2022/09/10 06:33:47;;;;;;;4.95;3.60;;;14.20;99.90;;;;;;4386853;28;658133;-67
2022/09/10 06:36:34;;;;;;;6.57;3.40;;;14.30;99.90;;;;;;4404800;28;657702;-69
2022/09/10 06:39:21;;;;;;;6.20;3.93;;;14.40;99.90;;;;;;4388155;28;657773;-69
2022/09/10 06:42:08;;;;;;;7.00;4.20;;;14.50;99.90;;;;;;4404582;28;658068;-69
2022/09/10 06:44:56;;;;;;;5.90;3.90;;;14.60;99.90;;;;;;4385599;28;658297;-69
2022/09/10 06:47:45;;;;;;;5.40;4.13;;;14.50;99.90;;;;;;4408219;28;658746;-69
2022/09/10 06:50:32;;;;;;;6.73;4.13;;;14.60;99.90;;;;;;4385136;28;658187;-69
2022/09/10 06:53:20;;;;;;;5.20;3.80;;;14.70;99.90;;;;;;4403178;28;657518;-70
2022/09/10 06:56:09;;;;;;;4.43;3.73;;;14.80;99.90;;;;;;4380952;28;658242;-70
2022/09/10 06:58:57;;;;;;;5.13;3.97;;;14.90;99.90;;;;;;4386593;28;657828;-69
2022/09/10 07:01:46;;;;;;;5.37;4.33;;;14.90;99.90;;;;;;4407098;28;658021;-69
2022/09/10 07:04:34;;;;;;;6.10;3.90;;;14.90;99.90;;;;;;4386094;28;658480;-69
2022/09/10 07:07:21;;;;;;;7.37;4.87;;;14.90;99.90;;;;;;4389214;28;659332;-69
2022/09/10 07:10:09;;;;;;;6.13;4.77;;;15.00;99.90;;;;;;4408153;28;657580;-69
2022/09/10 07:12:56;;;;;;;5.70;4.90;;;15.00;99.90;;;;;;4390280;28;657633;-69
2022/09/10 07:15:45;;;;;;;5.80;4.60;;;15.10;99.90;;;;;;4405492;28;657899;-69
2022/09/10 07:18:32;;;;;;;6.70;4.33;;;15.00;99.90;;;;;;4383289;28;658845;-69
2022/09/10 07:21:21;;;;;;;5.80;3.90;;;14.90;99.90;;;;;;4408102;28;657841;-69
2022/09/10 07:24:09;;;;;;;4.40;3.90;;;14.80;99.90;;;;;;4384898;28;658149;-69
2022/09/10 07:26:56;;;;;;;9.30;3.70;;;14.80;99.90;;;;;;4387515;28;657868;-69
2022/09/10 07:29:43;;;;;;;4.73;4.03;;;15.00;99.90;;;;;;4410087;28;657846;-69
2022/09/10 07:32:34;;;;;;;5.27;4.17;;;15.10;99.90;;;;;;4388995;28;657436;-69
2022/09/10 07:35:21;;;;;;;5.30;4.33;;;15.30;99.90;;;;;;4386210;28;657801;-69
2022/09/10 07:38:16;;;;;;;7.53;4.70;;;15.30;99.90;;;;;;4408707;28;658597;-69
2022/09/10 07:41:03;;;;;;;6.13;4.20;;;15.50;99.90;;;;;;4383959;28;658023;-70
2022/09/10 07:43:53;;;;;;;7.17;4.93;;;15.60;99.90;;;;;;4392728;28;657615;-67
2022/09/10 07:46:41;;;;;;;6.70;4.50;;;15.70;99.90;;;;;;4400556;28;658044;-67
2022/09/10 07:49:29;;;;;;;7.63;4.43;;;15.80;99.90;;;;;;4409423;28;658557;-69
2022/09/10 07:52:17;;;;;;;8.20;4.60;;;15.80;99.90;;;;;;4388475;28;658486;-71
2022/09/10 07:55:06;;;;;;;6.73;4.60;;;15.80;99.90;;;;;;4405966;28;657917;-70
2022/09/10 07:57:54;;;;;;;6.57;4.70;;;15.90;99.90;;;;;;4383362;28;658580;-70
2022/09/10 08:00:41;;;;;;;10.07;4.33;;;16.00;99.90;;;;;;4387734;28;657739;-69
2022/09/10 08:03:29;;;;;;;6.50;4.10;;;16.20;99.90;;;;;;4404451;28;658819;-69
2022/09/10 08:06:17;;;;;;;4.47;3.43;;;16.30;99.90;;;;;;4389700;28;658114;-70
2022/09/10 08:09:04;;;;;;;4.07;3.07;;;16.30;99.90;;;;;;4405954;28;657718;-70
2022/09/10 08:11:53;;;;;;;5.63;3.60;;;16.70;99.90;;;;;;4384363;28;658776;-69
2022/09/10 08:14:41;;;;;;;4.50;3.30;;;16.90;99.90;;;;;;4384738;28;657255;-68
2022/09/10 08:17:29;;;;;;;3.80;3.03;;;17.10;99.90;;;;;;4404285;28;657325;-70
2022/09/10 08:20:16;;;;;;;7.53;3.07;;;17.40;99.90;;;;;;4388797;28;657671;-70
2022/09/10 08:23:04;;;;;;;4.23;2.90;;;17.10;99.90;;;;;;4410845;28;658526;-68
2022/09/10 08:25:51;;;;;;;4.53;3.10;;;17.10;99.90;;;;;;4390692;28;657387;-70
2022/09/10 08:28:42;;;;;;;4.37;3.07;;;17.10;99.90;;;;;;4409646;28;657749;-69
2022/09/10 08:31:29;;;;;;;5.20;3.53;;;17.10;99.90;;;;;;4384961;28;657632;-70
2022/09/10 08:34:16;;;;;;;5.23;3.67;;;17.20;99.90;;;;;;4387301;28;657542;-70
2022/09/10 08:37:03;;;;;;;4.73;3.63;;;17.40;99.90;;;;;;4410748;28;658191;-70
2022/09/10 08:39:50;;;;;;;5.83;3.67;;;17.60;99.90;;;;;;4389920;28;657794;-65
2022/09/10 08:42:39;;;;;;;5.28;3.47;;;17.60;99.90;;;;;;4410328;28;658139;-65
2022/09/10 08:45:28;;;;;;;5.23;3.00;;;17.80;99.90;;;;;;4385289;28;657422;-67
2022/09/10 08:48:17;;;;;;;2.80;2.27;;;17.60;99.90;;;;;;4389253;28;657698;-66
2022/09/10 08:51:07;;;;;;;3.37;2.10;;;17.50;99.90;;;;;;4405182;28;657846;-66
2022/09/10 08:53:55;;;;;;;10.57;3.90;;;17.50;99.90;;;;;;4382582;28;657241;-65
2022/09/10 08:56:42;;;;;;;6.23;2.53;;;17.50;99.90;;;;;;4384331;28;659398;-65
2022/09/10 08:59:32;;;;;;;4.17;2.30;;;17.40;99.90;;;;;;4409460;28;657032;-65
2022/09/10 09:02:22;;;;;;;4.17;2.30;;;17.20;99.90;;;;;;4403453;28;657710;-66
2022/09/10 09:05:12;;;;;;;3.40;2.10;;;17.30;99.90;;;;;;4381052;28;657973;-65
2022/09/10 09:07:59;;;;;;;3.50;2.10;;;17.10;99.90;;;;;;4385303;28;657659;-66
2022/09/10 09:10:48;;;;;;;2.50;1.97;;;16.50;99.90;;;;;;4388316;28;657819;-65
2022/09/10 09:13:45;;;;;;;2.33;1.70;;;16.40;99.90;;;;;;4385637;28;657767;-66
2022/09/10 09:16:40;;;;;;;7.17;2.30;;;16.30;99.90;;;;;;4361258;28;657845;-65
2022/09/10 09:19:32;;;;;;;3.73;2.03;;;16.30;99.90;;;;;;4357360;28;659077;-66
2022/09/10 09:22:20;;;;;;;2.77;2.37;;;16.50;99.90;;;;;;4379917;28;657500;-66
2022/09/10 09:25:09;;;;;;;3.50;2.10;;;16.80;99.90;;;;;;4382361;28;659510;-65
2022/09/10 09:27:56;;;;;;;4.23;2.00;;;16.80;99.90;;;;;;4388423;28;658049;-65
2022/09/10 09:30:48;;;;;;;2.63;2.30;;;17.20;99.90;;;;;;4404936;28;658366;-65
2022/09/10 09:33:35;;;;;;;4.17;2.37;;;17.70;99.90;;;;;;4371517;28;658062;-67
2022/09/10 09:36:28;;;;;;;4.72;3.00;;;17.60;99.90;;;;;;4415021;28;657424;-66
2022/09/10 09:39:18;;;;;;;6.53;3.53;;;17.70;99.90;;;;;;4370228;28;657781;-66
2022/09/10 09:42:08;;;;;;;5.77;3.80;;;17.80;99.90;;;;;;4389667;28;657623;-67
2022/09/10 09:44:59;;;;;;;5.20;3.37;;;18.00;99.90;;;;;;4402468;28;658025;-66
2022/09/10 09:47:46;;;;;;;6.33;3.60;;;17.60;99.90;;;;;;4394236;28;658014;-65
2022/09/10 09:50:34;;;;;;;7.27;4.50;;;17.80;99.90;;;;;;4404875;28;658634;-65
2022/09/10 09:53:25;;;;;;;7.77;3.43;;;17.90;99.90;;;;;;4386706;28;658941;-66
2022/09/10 09:56:15;;;;;;;6.63;3.00;;;17.80;99.90;;;;;;4381008;28;657913;-65
2022/09/10 09:59:07;;;;;;;4.20;3.20;;;17.30;99.90;;;;;;4385040;28;659022;-65
2022/09/10 10:01:54;;;;;;;3.67;2.90;;;17.50;99.90;;;;;;4380953;28;657540;-64
2022/09/10 10:04:42;;;;;;;3.60;2.73;;;17.70;99.90;;;;;;4388438;28;657987;-65
2022/09/10 10:07:30;;;;;;;4.03;3.20;;;17.70;99.90;;;;;;4405718;28;657828;-65
2022/09/10 10:10:23;;;;;;;6.73;3.57;;;18.00;99.90;;;;;;4385539;28;658797;-65
2022/09/10 10:13:20;;;;;;;5.63;3.63;;;18.10;99.90;;;;;;4394160;28;657891;-65
2022/09/10 10:16:17;;;;;;;5.37;3.17;;;17.80;99.90;;;;;;4386462;28;658364;-65
2022/09/10 10:19:25;;;;;;;10.80;4.60;;;17.90;99.90;;;;;;4384076;28;658288;-64
2022/09/10 10:22:21;;;;;;;7.27;3.97;;;18.00;99.90;;;;;;4361278;28;660053;-64
2022/09/10 10:25:40;;;;;;;5.88;3.70;;;18.10;99.90;;;;;;4390907;28;659040;-64
2022/09/10 10:28:27;;;;;;;6.33;4.10;;;19.10;99.90;;;;;;4318287;28;657738;-64
2022/09/10 10:31:14;;;;;;;9.00;3.93;;;17.80;99.90;;;;;;4403205;28;657902;-65
2022/09/10 10:34:07;;;;;;;8.03;3.20;;;19.20;99.90;;;;;;4380769;28;657795;-63
2022/09/10 10:36:59;;;;;;;6.30;2.60;;;19.90;99.90;;;;;;4385705;28;657684;-63
2022/09/10 10:40:10;;;;;;;2.57;2.37;;;19.20;99.90;;;;;;4392734;28;659516;-64
2022/09/10 10:43:02;;;;;;;4.13;2.40;;;18.60;99.90;;;;;;4362527;28;657637;-64
2022/09/10 10:45:54;;;;;;;4.27;2.60;;;18.60;99.90;;;;;;4389394;28;658452;-64
2022/09/10 10:48:48;;;;;;;3.20;2.50;;;18.70;99.90;;;;;;4367427;28;658121;-64
2022/09/10 10:51:41;;;;;;;5.27;2.47;;;19.10;99.90;;;;;;4392037;28;658301;-64
2022/09/10 10:54:36;;;;;;;3.23;2.47;;;19.10;99.90;;;;;;4381202;28;658615;-64
2022/09/10 10:57:27;;;;;;;5.40;3.30;;;19.60;99.90;;;;;;4388607;28;658868;-64
2022/09/10 11:00:17;;;;;;;3.87;3.13;;;20.30;99.90;;;;;;4390000;28;658061;-64
2022/09/10 11:03:09;;;;;;;7.27;3.40;;;20.30;99.90;;;;;;4393160;28;658125;-64
2022/09/10 11:05:57;;;;;;;4.37;3.10;;;20.40;99.90;;;;;;4375266;28;658655;-64
2022/09/10 11:08:46;;;;;;;3.87;3.07;;;20.80;99.90;;;;;;4415779;28;657857;-64
2022/09/10 11:11:34;;;;;;;6.30;2.70;;;20.60;99.90;;;;;;4396063;28;658518;-64
2022/09/10 11:14:27;;;;;;;6.70;3.10;;;20.60;99.90;;;;;;4392646;28;658978;-64
2022/09/10 11:17:17;;;;;;;6.90;3.57;;;20.20;99.90;;;;;;4391683;28;657510;-65
2022/09/10 11:20:09;;;;;;;6.30;3.33;;;19.70;99.90;;;;;;4386489;28;657825;-64
2022/09/10 11:22:58;;;;;;;5.20;3.50;;;19.20;99.90;;;;;;4364598;28;657672;-64
2022/09/10 11:25:51;;;;;;;7.13;4.17;;;19.00;99.90;;;;;;4399161;28;657677;-65
2022/09/10 11:28:40;;;;;;;9.50;4.70;;;19.60;99.90;;;;;;4395136;28;657595;-64
2022/09/10 11:31:30;;;;;;;11.43;5.40;;;19.60;99.90;;;;;;4386128;28;657980;-64
2022/09/10 11:34:23;;;;;;;12.67;5.50;;;19.60;99.90;;;;;;4389986;28;659150;-64
2022/09/10 11:37:13;;;;;;;12.03;5.87;;;19.30;99.90;;;;;;4372343;28;659057;-65
2022/09/10 11:40:04;;;;;;;15.37;5.70;;;19.00;99.90;;;;;;4390571;28;659000;-65
2022/09/10 11:42:53;;;;;;;10.10;5.90;;;18.50;99.90;;;;;;4389958;28;658665;-64
2022/09/10 11:45:45;;;;;;;12.47;5.73;;;18.30;99.90;;;;;;4402406;28;658708;-66
2022/09/10 11:48:33;;;;;;;7.50;5.50;;;18.30;99.90;;;;;;4389136;28;660088;-64
2022/09/10 11:51:23;;;;;;;11.77;6.13;;;18.50;99.90;;;;;;4398072;28;658095;-65
2022/09/10 11:54:12;;;;;;;12.03;5.83;;;18.60;99.90;;;;;;4387722;28;658861;-64
2022/09/10 11:57:01;;;;;;;10.83;6.27;;;18.80;99.90;;;;;;4402234;28;659475;-64
2022/09/10 12:00:00;;;;;;;13.53;6.20;;;18.90;99.90;;;;;;4383421;28;659613;-64
2022/09/10 12:03:22;;;;;;;12.57;6.30;;;18.80;99.90;;;;;;4361594;28;659096;-64
2022/09/10 12:06:10;;;;;;;13.77;6.00;;;18.80;99.90;;;;;;4380104;28;659473;-65
2022/09/10 12:09:04;;;;;;;11.13;6.97;;;18.90;99.90;;;;;;4384221;28;660399;-65
2022/09/10 12:11:55;;;;;;;7.17;4.70;;;19.20;99.90;;;;;;4387901;28;658725;-64
2022/09/10 12:14:42;;;;;;;7.87;4.40;;;19.90;99.90;;;;;;4388056;28;658777;-64
2022/09/10 12:17:30;;;;;;;9.17;4.03;;;20.40;99.90;;;;;;4399256;28;657749;-64
2022/09/10 12:20:19;;;;;;;5.57;4.00;;;20.40;99.90;;;;;;4392767;28;658850;-65
2022/09/10 12:23:06;;;;;;;5.50;3.73;;;21.20;99.90;;;;;;4381138;28;657830;-64
2022/09/10 12:25:58;;;;;;;6.63;3.00;;;22.10;99.90;;;;;;4405579;28;658741;-64
2022/09/10 12:29:04;;;;;;;3.73;2.70;;;22.00;99.90;;;;;;4368300;28;657409;-64
2022/09/10 12:32:37;;;;;;;4.10;2.60;;;22.00;99.90;;;;;;4361388;28;658468;-64
2022/09/10 12:35:45;;;;;;;4.57;2.60;;;23.10;99.90;;;;;;4389746;28;658799;-64
2022/09/10 12:38:49;;;;;;;3.13;2.50;;;22.60;99.90;;;;;;4393726;28;657767;-64
2022/09/10 12:42:00;;;;;;;3.63;2.63;;;22.10;99.90;;;;;;4384519;28;657644;-64
2022/09/10 12:44:48;;;;;;;3.70;2.43;;;22.50;99.90;;;;;;4340437;28;659020;-64
2022/09/10 12:47:49;;;;;;;4.70;2.37;;;22.20;99.90;;;;;;4377974;28;658300;-66
2022/09/10 12:50:37;;;;;;;4.33;2.50;;;21.70;99.90;;;;;;4376267;28;658170;-65
2022/09/10 12:53:46;;;;;;;4.07;2.27;;;20.80;99.90;;;;;;4388308;28;657950;-64
2022/09/10 12:56:58;;;;;;;3.70;2.13;;;20.70;99.90;;;;;;4388238;28;658009;-64
2022/09/10 13:00:20;;;;;;;6.27;2.20;;;20.70;99.90;;;;;;4353305;28;658019;-65
2022/09/10 13:03:15;;;;;;;6.87;2.70;;;20.20;99.90;;;;;;4347036;28;657878;-64
2022/09/10 13:06:04;;;;;;;5.00;1.90;;;20.50;99.90;;;;;;4380105;28;658484;-63
2022/09/10 13:08:52;;;;;;;3.37;2.03;;;21.30;99.90;;;;;;4373483;28;657326;-64
2022/09/10 13:11:39;;;;;;;3.03;2.03;;;21.00;99.90;;;;;;4394598;28;657875;-64
2022/09/10 13:14:29;;;;;;;4.30;2.13;;;20.80;99.90;;;;;;4375848;28;658342;-64
2022/09/10 13:17:40;;;;;;;2.37;1.87;;;20.80;99.90;;;;;;4375810;28;657648;-64
2022/09/10 13:20:31;;;;;;;2.17;1.97;;;20.60;99.90;;;;;;4348864;28;657403;-64
2022/09/10 13:23:23;;;;;;;2.03;1.80;;;20.20;99.90;;;;;;4368350;28;658535;-64
2022/09/10 13:26:47;;;;;;;2.00;1.77;;;20.10;99.90;;;;;;4352431;28;657662;-65
2022/09/10 13:29:34;;;;;;;6.63;2.20;;;19.70;99.90;;;;;;4370986;28;657536;-65
2022/09/10 13:32:26;;;;;;;3.17;2.17;;;19.70;99.90;;;;;;4375175;28;658228;-64
2022/09/10 13:36:00;;;;;;;4.00;2.20;;;20.30;99.90;;;;;;4371356;28;659367;-64
2022/09/10 13:39:27;;;;;;;3.60;2.50;;;20.40;99.90;;;;;;4367660;28;657874;-64
2022/09/10 13:42:24;;;;;;;8.73;2.80;;;21.00;99.90;;;;;;4301014;28;657218;-64
2022/09/10 13:45:22;;;;;;;4.80;2.53;;;21.60;99.90;;;;;;4345611;28;658320;-64
2022/09/10 13:48:13;;;;;;;4.90;3.00;;;21.70;99.90;;;;;;4371391;28;658145;-64
2022/09/10 13:51:09;;;;;;;3.10;2.80;;;20.80;99.90;;;;;;4352598;28;657615;-64
2022/09/10 13:53:56;;;;;;;5.37;3.07;;;19.50;99.90;;;;;;4370724;28;657862;-64
2022/09/10 13:56:43;;;;;;;2.47;2.28;;;19.50;99.90;;;;;;4388812;28;658102;-64
2022/09/10 13:59:30;;;;;;;3.37;2.73;;;19.70;99.90;;;;;;4375472;28;658511;-65
2022/09/10 14:02:19;;;;;;;2.90;2.40;;;20.90;99.90;;;;;;4390711;28;658947;-64
2022/09/10 14:05:22;;;;;;;2.83;2.10;;;21.30;99.90;;;;;;4373631;28;659196;-64
2022/09/10 14:08:14;;;;;;;4.17;2.73;;;21.10;99.90;;;;;;4368600;28;657407;-64
2022/09/10 14:11:03;;;;;;;2.90;2.60;;;21.50;99.90;;;;;;4371647;28;657803;-63
2022/09/10 14:13:54;;;;;;;4.20;2.70;;;22.70;99.90;;;;;;4369224;28;657582;-65
2022/09/10 14:16:42;;;;;;;7.20;2.73;;;22.00;99.90;;;;;;4369518;28;657390;-65
2022/09/10 14:19:32;;;;;;;4.47;2.70;;;22.50;99.90;;;;;;4391596;28;657098;-64
2022/09/10 14:22:21;;;;;;;5.30;2.37;;;23.20;99.90;;;;;;4369042;28;657489;-64
2022/09/10 14:25:30;;;;;;;4.17;2.40;;;23.80;99.90;;;;;;4369518;28;658941;-64
2022/09/10 14:28:23;;;;;;;5.20;2.30;;;23.20;99.90;;;;;;4365140;28;658552;-64